Time;durP1;ratioP1;P1;durP2;ratioP2;P2;SDS_P1;SDS_P2;PMS_P1;PMS_P2;Temp;Humidity;BMP_temperature;BMP_pressure;BME280_temperature;BME280_humidity;BME280_pressure;Samples;Min_cycle;Max_cycle;Signal;HPM_P1;HPM_P2
2022/01/26 00:06:43;;;;;;;59.23;22.60;;;1.50;99.90;;;;;;5076889;28;20532;-74
2022/01/26 00:09:11;;;;;;;71.63;21.70;;;1.50;99.90;;;;;;5076552;28;20053;-74
2022/01/26 00:11:39;;;;;;;63.27;20.27;;;1.50;99.90;;;;;;5076810;28;20504;-75
2022/01/26 00:14:11;;;;;;;65.40;21.57;;;1.50;99.90;;;;;;5076118;28;20516;-74
2022/01/26 00:16:41;;;;;;;59.87;21.40;;;1.50;99.90;;;;;;5076355;28;20052;-74
2022/01/26 00:19:12;;;;;;;64.10;20.53;;;1.40;99.90;;;;;;5076468;28;20095;-74
2022/01/26 00:21:44;;;;;;;56.80;21.80;;;1.40;99.90;;;;;;5076097;28;20115;-74
2022/01/26 00:24:26;;;;;;;57.37;22.03;;;1.40;99.90;;;;;;5076089;28;20116;-74
2022/01/26 00:27:24;;;;;;;62.53;22.27;;;1.30;99.90;;;;;;5075366;28;20055;-74
2022/01/26 00:30:14;;;;;;;61.35;22.58;;;1.40;99.90;;;;;;5075417;28;20051;-74
2022/01/26 00:41:03;;;;;;;59.50;20.40;;;1.40;99.90;;;;;;5075443;28;20070;-74
2022/01/26 00:43:30;;;;;;;65.40;21.57;;;1.40;99.90;;;;;;5075083;28;20106;-74
2022/01/26 00:46:00;;;;;;;60.87;21.07;;;1.40;99.90;;;;;;5075189;28;20708;-74
2022/01/26 00:48:30;;;;;;;50.93;20.03;;;1.40;99.90;;;;;;5074575;28;20598;-74
2022/01/26 00:51:00;;;;;;;54.83;18.47;;;1.40;99.90;;;;;;5074827;28;20040;-75
2022/01/26 00:53:32;;;;;;;59.00;21.07;;;1.40;99.90;;;;;;5074378;28;20048;-74
2022/01/26 00:55:59;;;;;;;58.93;20.73;;;1.40;99.90;;;;;;5073685;28;20052;-75
2022/01/26 00:58:27;;;;;;;56.73;20.23;;;1.30;99.90;;;;;;5074692;28;20128;-74
2022/01/26 01:00:54;;;;;;;52.53;19.20;;;1.40;99.90;;;;;;5075308;28;20483;-74
2022/01/26 01:03:23;;;;;;;62.07;21.20;;;1.40;99.90;;;;;;5075027;28;20510;-74
2022/01/26 01:05:55;;;;;;;57.67;19.93;;;1.40;99.90;;;;;;5075352;28;20056;-74
2022/01/26 01:08:24;;;;;;;60.73;21.47;;;1.40;99.90;;;;;;5075420;28;20049;-74
2022/01/26 01:10:52;;;;;;;57.37;20.07;;;1.40;99.90;;;;;;5074635;28;20048;-75
2022/01/26 01:13:22;;;;;;;56.70;20.50;;;1.40;99.90;;;;;;5073196;28;20463;-74
2022/01/26 01:15:52;;;;;;;59.93;20.67;;;1.40;99.90;;;;;;5074821;28;20052;-74
2022/01/26 01:18:23;;;;;;;57.47;20.87;;;1.40;99.90;;;;;;5075468;28;20466;-73
2022/01/26 01:21:12;;;;;;;60.77;20.67;;;1.50;99.90;;;;;;5074772;28;20041;-74
2022/01/26 01:24:08;;;;;;;56.90;20.90;;;1.50;99.90;;;;;;5074860;28;20056;-74
2022/01/26 01:29:36;;;;;;;48.30;18.77;;;1.50;99.90;;;;;;5012956;28;20042;-74
2022/01/26 01:32:11;;;;;;;45.57;17.90;;;1.60;99.90;;;;;;5062616;28;20143;-74
2022/01/26 01:34:39;;;;;;;48.33;16.93;;;1.50;99.90;;;;;;5074356;28;20045;-74
2022/01/26 01:37:13;;;;;;;42.00;17.03;;;1.50;99.90;;;;;;5074734;28;20098;-74
2022/01/26 01:39:40;;;;;;;42.67;17.03;;;1.50;99.90;;;;;;5072088;28;20059;-74
2022/01/26 01:42:09;;;;;;;43.10;16.37;;;1.50;99.90;;;;;;5071409;28;20132;-78
2022/01/26 01:44:37;;;;;;;52.20;19.10;;;1.50;99.90;;;;;;5072616;28;20119;-74
2022/01/26 01:47:05;;;;;;;54.37;19.33;;;1.50;99.90;;;;;;5074630;28;20083;-75
2022/01/26 01:49:32;;;;;;;50.60;19.60;;;1.50;99.90;;;;;;5075217;28;20059;-75
2022/01/26 01:52:02;;;;;;;52.60;19.20;;;1.50;99.90;;;;;;5074566;28;20067;-74
2022/01/26 01:54:32;;;;;;;54.30;18.90;;;1.50;99.90;;;;;;5074425;28;20060;-74
2022/01/26 01:56:59;;;;;;;48.93;18.47;;;1.50;99.90;;;;;;5074687;28;20075;-74
2022/01/26 01:59:29;;;;;;;53.13;19.43;;;1.50;99.90;;;;;;5074557;28;20091;-75
2022/01/26 02:01:57;;;;;;;56.53;20.53;;;1.50;99.90;;;;;;5074177;28;20470;-75
2022/01/26 02:04:24;;;;;;;52.77;19.17;;;1.50;99.90;;;;;;5074162;28;20092;-75
2022/01/26 02:06:51;;;;;;;52.27;19.30;;;1.40;99.90;;;;;;5074357;28;20083;-74
2022/01/26 02:09:18;;;;;;;54.57;20.47;;;1.50;99.90;;;;;;5074607;28;20052;-75
2022/01/26 02:11:53;;;;;;;46.83;17.67;;;1.50;99.90;;;;;;5074593;28;20492;-74
2022/01/26 02:14:26;;;;;;;51.57;17.67;;;1.50;99.90;;;;;;5074687;28;20056;-75
2022/01/26 02:17:02;;;;;;;53.70;18.60;;;1.60;99.90;;;;;;5074537;28;20045;-74
2022/01/26 02:53:20;;;;;;;39.15;14.40;;;1.60;99.90;;;;;;5072583;28;20119;-74
2022/01/26 02:55:51;;;;;;;33.30;13.07;;;1.60;99.90;;;;;;5075848;28;20052;-76
2022/01/26 03:01:16;;;;;;;34.50;13.23;;;1.50;99.90;;;;;;5075206;28;20049;-75
2022/01/26 03:03:49;;;;;;;32.57;12.27;;;1.60;99.90;;;;;;5077212;28;20084;-74
2022/01/26 03:06:22;;;;;;;30.03;13.33;;;1.60;99.90;;;;;;5077940;28;20056;-74
2022/01/26 03:08:55;;;;;;;32.30;13.43;;;1.60;99.90;;;;;;5077675;28;20147;-74
2022/01/26 03:11:27;;;;;;;35.57;12.50;;;1.60;99.90;;;;;;5077063;28;20461;-74
2022/01/26 03:14:02;;;;;;;31.30;13.57;;;1.50;99.90;;;;;;5077626;28;20052;-74
2022/01/26 03:16:34;;;;;;;26.00;11.73;;;1.60;99.90;;;;;;5077665;28;20059;-74
2022/01/26 03:19:14;;;;;;;32.23;12.17;;;1.60;99.90;;;;;;5077742;28;20048;-73
2022/01/26 03:21:50;;;;;;;36.70;12.50;;;1.60;99.90;;;;;;5077783;28;20048;-74
2022/01/26 03:30:19;;;;;;;24.90;10.23;;;1.60;99.90;;;;;;5075754;28;20044;-74
2022/01/26 03:33:08;;;;;;;29.73;10.40;;;1.50;99.90;;;;;;5075561;28;20070;-75
2022/01/26 03:35:42;;;;;;;24.40;9.70;;;1.40;99.90;;;;;;5076337;28;20044;-73
2022/01/26 03:38:17;;;;;;;25.67;10.57;;;1.50;99.90;;;;;;5077344;28;20067;-73
2022/01/26 03:40:44;;;;;;;25.27;9.53;;;1.50;99.90;;;;;;5076272;28;20094;-77
2022/01/26 03:43:12;;;;;;;20.37;8.70;;;1.40;99.90;;;;;;5074545;28;20045;-75
2022/01/26 03:45:39;;;;;;;21.97;7.97;;;1.40;99.90;;;;;;5075700;28;20083;-73
2022/01/26 03:48:06;;;;;;;21.43;8.73;;;1.50;99.90;;;;;;5076921;28;20132;-73
2022/01/26 03:50:33;;;;;;;23.47;8.83;;;1.60;99.90;;;;;;5077188;28;20146;-73
2022/01/26 03:53:00;;;;;;;25.50;9.20;;;1.60;99.90;;;;;;5077390;28;20072;-74
2022/01/26 03:55:27;;;;;;;20.63;8.37;;;1.60;99.90;;;;;;5076930;28;20091;-74
2022/01/26 03:57:54;;;;;;;21.43;9.07;;;1.50;99.90;;;;;;5076978;28;20049;-74
2022/01/26 04:00:22;;;;;;;21.57;8.30;;;1.40;99.90;;;;;;5076697;28;20052;-74
2022/01/26 04:02:49;;;;;;;22.23;9.60;;;1.40;99.90;;;;;;5076260;28;20094;-74
2022/01/26 04:05:16;;;;;;;21.43;8.47;;;1.40;99.90;;;;;;5076032;28;20084;-74
2022/01/26 04:07:44;;;;;;;22.47;9.10;;;1.50;99.90;;;;;;5076722;28;20083;-74
2022/01/26 04:10:20;;;;;;;22.47;8.43;;;1.50;99.90;;;;;;5077306;28;20057;-74
2022/01/26 04:12:47;;;;;;;23.37;9.17;;;1.50;99.90;;;;;;5076662;28;20040;-75
2022/01/26 04:15:22;;;;;;;25.70;9.10;;;1.50;99.90;;;;;;5076501;28;20083;-74
2022/01/26 04:17:51;;;;;;;24.10;9.63;;;1.40;99.90;;;;;;5076585;28;20060;-74
2022/01/26 04:20:18;;;;;;;24.80;10.57;;;1.40;99.90;;;;;;5076258;28;20048;-74
2022/01/26 04:22:55;;;;;;;21.53;9.03;;;1.50;99.90;;;;;;5075803;28;20416;-74
2022/01/26 04:25:25;;;;;;;20.88;8.45;;;1.40;99.90;;;;;;5076747;28;20094;-74
2022/01/26 04:27:55;;;;;;;24.47;10.83;;;1.40;99.90;;;;;;5076588;28;20075;-74
2022/01/26 04:30:22;;;;;;;27.07;9.97;;;1.40;99.90;;;;;;5076123;28;20056;-74
2022/01/26 04:32:49;;;;;;;24.30;9.80;;;1.40;99.90;;;;;;5075822;28;20041;-74
2022/01/26 04:35:17;;;;;;;27.50;10.43;;;1.40;99.90;;;;;;5075724;28;20078;-74
2022/01/26 04:38:07;;;;;;;22.70;9.33;;;1.40;99.90;;;;;;5075990;28;20128;-73
2022/01/26 04:40:40;;;;;;;21.77;8.33;;;1.40;99.90;;;;;;5075868;28;20056;-73
2022/01/26 04:43:15;;;;;;;20.30;8.60;;;1.40;99.90;;;;;;5075293;28;20052;-73
2022/01/26 04:45:42;;;;;;;22.50;8.87;;;1.30;99.90;;;;;;5075294;28;20044;-74
2022/01/26 04:48:09;;;;;;;24.87;8.93;;;1.30;99.90;;;;;;5075933;28;20052;-73
2022/01/26 04:50:37;;;;;;;23.27;9.43;;;1.30;99.90;;;;;;5075595;28;20056;-74
2022/01/26 04:53:04;;;;;;;21.47;8.70;;;1.30;99.90;;;;;;5075528;28;20131;-74
2022/01/26 04:55:31;;;;;;;23.83;8.77;;;1.30;99.90;;;;;;5075472;28;20131;-74
2022/01/26 04:57:58;;;;;;;22.73;8.80;;;1.30;99.90;;;;;;5075464;28;20126;-74
2022/01/26 05:00:25;;;;;;;28.10;9.83;;;1.30;99.90;;;;;;5075330;28;20063;-74
2022/01/26 05:02:52;;;;;;;28.27;10.33;;;1.30;99.90;;;;;;5074205;28;20104;-74
2022/01/26 05:05:19;;;;;;;27.27;10.23;;;1.30;99.90;;;;;;5073881;28;20075;-76
2022/01/26 05:07:47;;;;;;;27.13;10.17;;;1.20;99.90;;;;;;5073649;28;20132;-74
2022/01/26 05:10:14;;;;;;;25.60;10.87;;;1.20;99.90;;;;;;5074083;28;20127;-73
2022/01/26 05:12:42;;;;;;;34.23;10.83;;;1.20;99.90;;;;;;5073990;28;20178;-76
2022/01/26 05:15:10;;;;;;;37.87;12.27;;;1.20;99.90;;;;;;5072069;28;20048;-74
2022/01/26 05:17:38;;;;;;;31.03;11.87;;;1.20;99.90;;;;;;5072424;28;20045;-75
2022/01/26 05:20:08;;;;;;;32.00;10.87;;;1.20;99.90;;;;;;5073587;28;20060;-74
2022/01/26 05:22:35;;;;;;;31.07;12.20;;;1.30;99.90;;;;;;5074038;28;20044;-74
2022/01/26 05:25:04;;;;;;;33.17;10.57;;;1.30;99.90;;;;;;5074468;28;20105;-74
2022/01/26 05:27:31;;;;;;;27.77;11.07;;;1.20;99.90;;;;;;5074554;28;20080;-75
2022/01/26 05:29:58;;;;;;;25.57;10.60;;;1.20;99.90;;;;;;5074331;28;20080;-74
2022/01/26 05:32:25;;;;;;;26.83;11.60;;;1.30;99.90;;;;;;5074199;28;20144;-74
2022/01/26 05:34:52;;;;;;;25.13;10.50;;;1.20;99.90;;;;;;5072603;28;20052;-74
2022/01/26 05:37:19;;;;;;;29.73;12.13;;;1.20;99.90;;;;;;5073276;28;20080;-74
2022/01/26 05:39:46;;;;;;;33.60;13.63;;;1.20;99.90;;;;;;5074256;28;20551;-74
2022/01/26 05:42:15;;;;;;;29.60;12.30;;;1.20;99.90;;;;;;5074785;28;20052;-74
2022/01/26 05:44:43;;;;;;;27.87;11.43;;;1.20;99.90;;;;;;5074810;28;20095;-73
2022/01/26 05:47:15;;;;;;;32.20;11.73;;;1.20;99.90;;;;;;5074813;28;20086;-74
2022/01/26 05:49:42;;;;;;;24.93;9.87;;;1.20;99.90;;;;;;5074258;28;20067;-74
2022/01/26 05:52:09;;;;;;;26.07;9.93;;;1.10;99.90;;;;;;5071727;28;20094;-75
2022/01/26 05:54:36;;;;;;;28.37;9.73;;;1.00;99.90;;;;;;5070852;28;20147;-74
2022/01/26 05:57:03;;;;;;;27.57;10.70;;;1.00;99.90;;;;;;5071358;28;20131;-75
2022/01/26 05:59:32;;;;;;;32.80;10.87;;;1.00;99.90;;;;;;5071511;28;20083;-74
2022/01/26 06:02:00;;;;;;;32.20;11.07;;;1.00;99.90;;;;;;5071817;28;20158;-75
2022/01/26 06:04:28;;;;;;;31.97;11.93;;;1.00;99.90;;;;;;5072622;28;20079;-73
2022/01/26 06:06:55;;;;;;;27.03;10.27;;;1.00;99.90;;;;;;5071551;28;20153;-74
2022/01/26 06:09:22;;;;;;;29.40;11.83;;;0.90;99.90;;;;;;5071866;28;20420;-73
2022/01/26 06:11:49;;;;;;;33.43;12.53;;;1.00;99.90;;;;;;5073245;28;20389;-74
2022/01/26 06:14:16;;;;;;;31.83;12.43;;;1.10;99.90;;;;;;5074339;28;20104;-74
2022/01/26 06:16:44;;;;;;;30.67;12.20;;;1.10;99.90;;;;;;5074501;28;20127;-74
2022/01/26 06:19:11;;;;;;;35.07;13.07;;;1.20;99.90;;;;;;5074751;28;20084;-74
2022/01/26 06:21:38;;;;;;;29.67;12.53;;;1.20;99.90;;;;;;5074387;28;20535;-74
2022/01/26 06:24:06;;;;;;;28.43;12.47;;;1.10;99.90;;;;;;5074179;28;20060;-74
2022/01/26 06:26:33;;;;;;;27.07;12.70;;;1.10;99.90;;;;;;5074244;28;20383;-73
2022/01/26 06:29:00;;;;;;;26.83;11.97;;;1.00;99.90;;;;;;5075989;28;20076;-74
2022/01/26 06:31:28;;;;;;;33.80;12.97;;;1.10;99.90;;;;;;5078119;28;20045;-74
2022/01/26 06:34:01;;;;;;;28.77;12.07;;;1.20;99.90;;;;;;5076760;28;20045;-74
2022/01/26 06:36:27;;;;;;;28.67;12.70;;;1.20;99.90;;;;;;5075986;28;20078;-74
2022/01/26 06:38:54;;;;;;;32.63;12.07;;;1.20;99.90;;;;;;5076492;28;20087;-74
2022/01/26 06:41:25;;;;;;;30.07;12.43;;;1.30;99.90;;;;;;5075711;28;20060;-75
2022/01/26 06:43:59;;;;;;;29.27;11.80;;;1.30;99.90;;;;;;5075451;28;20044;-74
2022/01/26 06:46:33;;;;;;;34.70;13.07;;;1.30;99.90;;;;;;5075260;28;20095;-74
2022/01/26 06:51:42;;;;;;;32.10;13.47;;;1.10;99.90;;;;;;5075199;28;20049;-74
2022/01/26 06:54:08;;;;;;;34.27;13.63;;;1.10;99.90;;;;;;5076413;28;20108;-74
2022/01/26 06:56:35;;;;;;;31.83;12.97;;;1.10;99.90;;;;;;5074611;28;20140;-74
2022/01/26 06:59:02;;;;;;;29.90;12.83;;;1.00;99.90;;;;;;5073770;28;20091;-75
2022/01/26 07:01:29;;;;;;;38.53;14.50;;;1.00;99.90;;;;;;5073028;28;20445;-74
2022/01/26 07:03:56;;;;;;;29.80;12.73;;;1.00;99.90;;;;;;5073975;28;20057;-75
2022/01/26 07:06:24;;;;;;;33.43;13.20;;;1.00;99.90;;;;;;5078415;28;20073;-75
2022/01/26 07:08:51;;;;;;;39.77;15.67;;;1.00;99.90;;;;;;5078579;28;20527;-74
2022/01/26 07:11:18;;;;;;;29.80;12.97;;;1.00;99.90;;;;;;5079331;28;20580;-74
2022/01/26 07:13:46;;;;;;;35.97;13.73;;;1.10;99.90;;;;;;5078905;28;20135;-74
2022/01/26 07:21:43;;;;;;;36.83;14.97;;;1.00;99.90;;;;;;5078473;28;20075;-75
2022/01/26 07:24:10;;;;;;;32.23;12.33;;;1.10;99.90;;;;;;5077042;28;20140;-75
2022/01/26 07:26:37;;;;;;;39.17;15.63;;;1.00;99.90;;;;;;5074116;28;20490;-73
2022/01/26 07:29:10;;;;;;;34.70;13.53;;;0.90;99.90;;;;;;5075718;28;20052;-75
2022/01/26 07:31:42;;;;;;;35.73;14.93;;;1.00;99.90;;;;;;5079183;28;20071;-73
2022/01/26 07:34:10;;;;;;;37.47;15.93;;;1.00;99.90;;;;;;5079006;28;20056;-73
2022/01/26 07:36:37;;;;;;;35.27;14.57;;;1.10;99.90;;;;;;5079312;28;20091;-74
2022/01/26 07:39:09;;;;;;;34.70;14.67;;;1.10;99.90;;;;;;5078889;28;20098;-74
2022/01/26 07:41:36;;;;;;;33.40;15.70;;;1.20;99.90;;;;;;5079080;28;20059;-74
2022/01/26 07:44:04;;;;;;;34.10;14.17;;;1.20;99.90;;;;;;5078348;28;20474;-74
2022/01/26 07:46:31;;;;;;;30.20;11.10;;;1.10;99.90;;;;;;5074838;28;20127;-75
2022/01/26 07:48:59;;;;;;;32.30;11.80;;;0.90;99.90;;;;;;5074001;28;20056;-74
2022/01/26 07:51:26;;;;;;;34.07;13.57;;;1.00;99.90;;;;;;5076671;28;20052;-75
2022/01/26 07:53:53;;;;;;;35.07;13.73;;;1.10;99.90;;;;;;5078903;28;20128;-74
2022/01/26 07:56:21;;;;;;;31.07;11.60;;;1.00;99.90;;;;;;5076514;28;20535;-75
2022/01/26 07:58:48;;;;;;;33.47;13.07;;;1.00;99.90;;;;;;5077316;28;20501;-75
2022/01/26 08:01:15;;;;;;;34.90;11.77;;;1.00;99.90;;;;;;5077030;28;20143;-75
2022/01/26 08:03:42;;;;;;;31.90;12.63;;;0.90;99.90;;;;;;5075649;28;20084;-75
2022/01/26 08:06:14;;;;;;;33.80;13.23;;;1.00;99.90;;;;;;5073790;28;20491;-74
2022/01/26 08:08:41;;;;;;;37.17;13.93;;;0.90;99.90;;;;;;5073778;28;20052;-74
2022/01/26 08:11:08;;;;;;;35.97;14.67;;;0.90;99.90;;;;;;5075468;28;20048;-75
2022/01/26 08:13:36;;;;;;;39.47;14.87;;;1.00;99.90;;;;;;5076826;28;20060;-75
2022/01/26 08:16:04;;;;;;;35.77;14.67;;;0.90;99.90;;;;;;5076269;28;20047;-73
2022/01/26 08:18:31;;;;;;;27.80;11.83;;;0.90;99.90;;;;;;5076964;28;20080;-73
2022/01/26 08:21:04;;;;;;;42.00;16.03;;;0.90;99.90;;;;;;5073770;28;20048;-74
2022/01/26 08:23:31;;;;;;;38.40;15.47;;;0.90;99.90;;;;;;5073844;28;20055;-74
2022/01/26 08:25:58;;;;;;;44.53;16.80;;;1.00;99.90;;;;;;5075688;28;20088;-74
2022/01/26 08:28:29;;;;;;;32.87;14.83;;;1.00;99.90;;;;;;5074866;28;20090;-75
2022/01/26 08:30:58;;;;;;;39.80;15.53;;;0.90;99.90;;;;;;5075426;28;20063;-76
2022/01/26 08:33:24;;;;;;;39.13;16.17;;;1.00;99.90;;;;;;5074627;28;20048;-74
2022/01/26 08:35:52;;;;;;;38.60;15.70;;;1.00;99.90;;;;;;5072867;28;20132;-75
2022/01/26 08:38:19;;;;;;;39.37;15.83;;;1.00;99.90;;;;;;5074313;28;20142;-74
2022/01/26 08:40:47;;;;;;;33.43;15.93;;;1.00;99.90;;;;;;5074837;28;20520;-73
2022/01/26 08:43:15;;;;;;;40.50;16.30;;;1.10;99.90;;;;;;5074908;28;20041;-74
2022/01/26 08:45:43;;;;;;;38.23;16.60;;;1.10;99.90;;;;;;5076712;28;20131;-75
2022/01/26 08:48:12;;;;;;;40.60;16.30;;;1.10;99.90;;;;;;5077153;28;20049;-75
2022/01/26 08:50:39;;;;;;;34.57;14.70;;;1.30;99.90;;;;;;5077135;28;20080;-75
2022/01/26 08:53:06;;;;;;;35.47;14.33;;;1.10;99.90;;;;;;5073157;28;20056;-74
2022/01/26 08:55:36;;;;;;;33.57;14.60;;;1.00;99.90;;;;;;5075053;28;20080;-73
2022/01/26 08:58:03;;;;;;;39.67;15.93;;;1.10;99.90;;;;;;5075759;28;20109;-74
2022/01/26 09:00:30;;;;;;;32.83;14.23;;;1.20;99.90;;;;;;5076274;28;20139;-74
2022/01/26 09:02:57;;;;;;;33.93;14.70;;;1.20;99.90;;;;;;5077125;28;20135;-74
2022/01/26 09:05:26;;;;;;;31.57;13.83;;;1.30;99.90;;;;;;5077352;28;20467;-74
2022/01/26 09:07:56;;;;;;;31.23;13.60;;;1.20;99.90;;;;;;5077447;28;20206;-74
2022/01/26 09:10:26;;;;;;;32.93;14.43;;;1.20;99.90;;;;;;5077373;28;20090;-75
2022/01/26 09:12:53;;;;;;;34.17;14.93;;;1.30;99.90;;;;;;5076949;28;20045;-74
2022/01/26 09:15:26;;;;;;;36.70;14.40;;;1.20;99.90;;;;;;5076297;28;20135;-74
2022/01/26 09:17:53;;;;;;;28.90;12.53;;;1.10;99.90;;;;;;5074449;28;20416;-74
2022/01/26 09:20:20;;;;;;;31.20;12.97;;;1.00;99.90;;;;;;5072420;28;20080;-74
2022/01/26 09:22:49;;;;;;;30.27;11.90;;;1.00;99.90;;;;;;5072206;28;20076;-75
2022/01/26 09:25:16;;;;;;;29.20;13.30;;;0.90;99.90;;;;;;5071882;28;20127;-74
2022/01/26 09:27:42;;;;;;;34.77;14.07;;;1.00;99.90;;;;;;5073505;28;20504;-75
2022/01/26 09:30:11;;;;;;;33.40;13.27;;;1.00;99.90;;;;;;5073020;28;20091;-74
2022/01/26 09:32:38;;;;;;;29.40;12.70;;;0.90;99.90;;;;;;5071663;28;20243;-75
2022/01/26 09:35:08;;;;;;;29.37;13.50;;;0.90;99.90;;;;;;5071681;28;20144;-77
2022/01/26 09:37:35;;;;;;;27.37;12.03;;;0.90;99.90;;;;;;5072331;28;20472;-74
2022/01/26 09:40:04;;;;;;;28.53;12.00;;;1.10;99.90;;;;;;5074359;28;20079;-74
2022/01/26 09:42:34;;;;;;;29.93;13.10;;;1.10;99.90;;;;;;5076098;28;20086;-74
2022/01/26 09:45:01;;;;;;;27.43;12.80;;;1.10;99.90;;;;;;5076497;28;20110;-74
2022/01/26 09:47:28;;;;;;;28.30;13.47;;;1.20;99.90;;;;;;5076658;28;20112;-75
2022/01/26 09:49:55;;;;;;;28.23;13.30;;;1.20;99.90;;;;;;5076268;28;20105;-75
2022/01/26 09:52:30;;;;;;;30.27;12.40;;;1.20;99.90;;;;;;5076241;28;20088;-75
2022/01/26 09:54:59;;;;;;;29.73;13.70;;;1.30;99.90;;;;;;5076036;28;20067;-74
2022/01/26 09:57:28;;;;;;;30.53;12.50;;;1.30;99.90;;;;;;5075931;28;20088;-75
2022/01/26 09:59:55;;;;;;;28.00;13.10;;;1.10;99.90;;;;;;5073899;28;20475;-75
2022/01/26 10:02:25;;;;;;;33.20;15.20;;;1.20;99.90;;;;;;5075933;28;20473;-75
2022/01/26 10:04:58;;;;;;;31.57;14.27;;;1.20;99.90;;;;;;5085393;22;20527;-71
2022/01/26 10:07:29;;;;;;;33.70;15.20;;;1.30;99.90;;;;;;5071852;28;20055;-71
2022/01/26 10:10:30;;;;;;;37.77;15.50;;;1.40;99.90;;;;;;5071757;28;20052;-71
2022/01/26 10:16:04;;;;;;;34.47;16.23;;;1.30;99.90;;;;;;5071526;28;20058;-71
2022/01/26 10:18:32;;;;;;;35.70;14.77;;;1.40;99.90;;;;;;5071578;28;20508;-69
2022/01/26 10:21:01;;;;;;;39.50;16.13;;;1.50;99.90;;;;;;5072077;28;20055;-70
2022/01/26 10:23:29;;;;;;;33.83;15.73;;;1.30;99.90;;;;;;5076428;28;20055;-69
2022/01/26 10:26:06;;;;;;;41.23;17.40;;;1.20;99.90;;;;;;5080434;28;20048;-70
2022/01/26 10:28:48;;;;;;;42.28;16.80;;;1.40;99.90;;;;;;5077806;28;20110;-70
2022/01/26 10:31:17;;;;;;;40.53;18.20;;;1.30;99.90;;;;;;5075091;28;20112;-69
2022/01/26 10:33:57;;;;;;;41.87;17.97;;;1.40;99.90;;;;;;5082989;28;20113;-70
2022/01/26 10:36:24;;;;;;;41.23;17.60;;;1.50;99.90;;;;;;5091977;28;20071;-70
2022/01/26 10:38:59;;;;;;;39.00;16.33;;;1.50;99.90;;;;;;5083584;28;20088;-70
2022/01/26 10:41:27;;;;;;;40.70;17.87;;;1.40;99.90;;;;;;5082867;28;20056;-70
2022/01/26 10:43:57;;;;;;;44.47;16.47;;;1.40;99.90;;;;;;5086744;28;20470;-69
2022/01/26 10:46:30;;;;;;;41.33;17.77;;;1.40;99.90;;;;;;5078770;28;20496;-69
2022/01/26 10:49:08;;;;;;;46.80;17.70;;;1.40;99.90;;;;;;5077798;28;20080;-69
2022/01/26 10:51:52;;;;;;;52.37;19.63;;;1.40;99.90;;;;;;5078508;28;20059;-69
2022/01/26 10:54:23;;;;;;;47.57;19.40;;;1.30;99.90;;;;;;5076648;28;20056;-70
2022/01/26 10:56:50;;;;;;;44.10;18.57;;;1.40;99.90;;;;;;5075006;28;20536;-69
2022/01/26 10:59:19;;;;;;;46.67;19.33;;;1.60;99.90;;;;;;5074830;28;20496;-70
2022/01/26 11:01:46;;;;;;;45.50;18.57;;;1.60;99.90;;;;;;5075262;28;20082;-70
2022/01/26 11:04:13;;;;;;;46.73;19.60;;;1.40;99.90;;;;;;5074529;28;20048;-70
2022/01/26 11:06:43;;;;;;;39.17;16.53;;;1.50;99.90;;;;;;5074805;28;20075;-70
2022/01/26 11:09:13;;;;;;;37.47;16.33;;;1.50;99.90;;;;;;5074880;28;20048;-69
2022/01/26 11:11:41;;;;;;;44.27;19.67;;;1.50;99.90;;;;;;5075366;28;20056;-70
2022/01/26 11:14:22;;;;;;;36.17;17.97;;;1.50;99.90;;;;;;5074683;28;20052;-69
2022/01/26 11:16:50;;;;;;;42.57;17.90;;;1.40;99.90;;;;;;5074978;28;20200;-70
2022/01/26 11:19:17;;;;;;;41.77;17.00;;;1.40;99.90;;;;;;5074786;28;20052;-69
2022/01/26 11:21:44;;;;;;;42.27;17.20;;;1.40;99.90;;;;;;5074993;28;20464;-69
2022/01/26 11:24:18;;;;;;;35.53;14.77;;;1.50;99.90;;;;;;5074480;28;20044;-69
2022/01/26 11:26:46;;;;;;;35.53;14.53;;;1.40;99.90;;;;;;5074809;28;20115;-70
2022/01/26 11:29:25;;;;;;;37.10;15.03;;;1.30;99.90;;;;;;5074620;28;20056;-69
2022/01/26 11:32:07;;;;;;;36.70;15.03;;;1.30;99.90;;;;;;5074212;28;20063;-69
2022/01/26 11:34:35;;;;;;;35.47;14.53;;;1.40;99.90;;;;;;5071711;28;20048;-69
2022/01/26 11:37:05;;;;;;;31.93;13.53;;;1.50;99.90;;;;;;5073226;28;20067;-69
2022/01/26 11:45:13;;;;;;;31.77;13.67;;;1.40;99.90;;;;;;5037059;28;20404;-70
2022/01/26 11:47:42;;;;;;;34.83;14.53;;;1.50;99.90;;;;;;5071250;28;20087;-69
2022/01/26 11:50:14;;;;;;;35.50;13.03;;;1.60;99.90;;;;;;5073738;28;20080;-70
2022/01/26 11:52:42;;;;;;;38.33;13.73;;;1.50;99.90;;;;;;5072974;28;20053;-69
2022/01/26 11:55:25;;;;;;;35.63;15.20;;;1.50;99.90;;;;;;5068235;28;20131;-69
2022/01/26 11:57:54;;;;;;;34.10;13.43;;;1.50;99.90;;;;;;5071679;28;20056;-69
2022/01/26 12:00:40;;;;;;;34.10;13.67;;;1.50;99.90;;;;;;5073630;28;20135;-69
2022/01/26 12:03:10;;;;;;;30.83;13.63;;;1.30;99.90;;;;;;5073681;28;20122;-69
2022/01/26 12:05:49;;;;;;;33.03;13.90;;;1.20;99.90;;;;;;5073598;28;20152;-69
2022/01/26 12:08:27;;;;;;;33.77;14.13;;;1.20;99.90;;;;;;5073849;28;20057;-69
2022/01/26 12:10:54;;;;;;;39.27;15.03;;;1.30;99.90;;;;;;5073611;28;20051;-69
2022/01/26 12:13:26;;;;;;;33.93;14.30;;;1.30;99.90;;;;;;5073465;28;20151;-69
2022/01/26 12:15:57;;;;;;;29.57;12.33;;;1.40;99.90;;;;;;5073360;28;20110;-69
2022/01/26 12:18:31;;;;;;;32.97;13.70;;;1.30;99.90;;;;;;5073910;28;20056;-69
2022/01/26 12:32:44;;;;;;;33.73;13.20;;;1.40;99.90;;;;;;5073116;28;20083;-69
2022/01/26 12:35:21;;;;;;;31.80;12.73;;;1.50;99.90;;;;;;5072685;28;20044;-69
2022/01/26 12:38:00;;;;;;;31.03;14.07;;;1.50;99.90;;;;;;5073184;28;20056;-69
2022/01/26 12:43:14;;;;;;;33.22;14.18;;;1.50;99.90;;;;;;5072768;28;20052;-70
2022/01/26 12:45:41;;;;;;;32.23;13.70;;;1.60;99.90;;;;;;5072580;28;20135;-69
2022/01/26 12:48:10;;;;;;;29.23;11.83;;;1.60;99.90;;;;;;5072656;28;20048;-69
2022/01/26 12:50:40;;;;;;;32.23;13.20;;;1.50;99.90;;;;;;5072711;28;20044;-69
2022/01/26 12:53:08;;;;;;;31.80;13.70;;;1.50;99.90;;;;;;5072597;28;20056;-70
2022/01/26 12:55:37;;;;;;;31.60;13.77;;;1.40;99.90;;;;;;5072527;28;20092;-70
2022/01/26 12:58:05;;;;;;;29.17;12.57;;;1.50;99.90;;;;;;5073174;28;20135;-69
2022/01/26 13:00:41;;;;;;;31.70;13.17;;;1.60;99.90;;;;;;5072330;28;20099;-69
2022/01/26 13:03:15;;;;;;;27.10;12.95;;;1.60;99.90;;;;;;5072265;28;20052;-69
2022/01/26 13:05:43;;;;;;;25.73;12.43;;;1.50;99.90;;;;;;5072295;28;20130;-69
2022/01/26 13:08:14;;;;;;;25.80;11.93;;;1.50;99.90;;;;;;5072339;28;20132;-69
2022/01/26 13:10:41;;;;;;;27.00;12.50;;;1.50;99.90;;;;;;5072300;28;20135;-69
2022/01/26 13:13:13;;;;;;;28.37;13.03;;;1.40;99.90;;;;;;5072143;28;20194;-69
2022/01/26 13:15:52;;;;;;;22.93;11.83;;;1.30;99.90;;;;;;5071964;28;20063;-69
2022/01/26 13:18:42;;;;;;;25.03;11.53;;;1.40;99.90;;;;;;5072485;28;20064;-69
2022/01/26 13:24:34;;;;;;;22.80;10.50;;;1.40;99.90;;;;;;5035940;28;20041;-69
2022/01/26 13:27:18;;;;;;;27.03;11.37;;;1.30;99.90;;;;;;5072072;28;20048;-69
2022/01/26 13:29:58;;;;;;;20.13;10.63;;;1.30;99.90;;;;;;5072222;28;20052;-69
2022/01/26 13:32:54;;;;;;;26.30;11.20;;;1.20;99.90;;;;;;5072020;28;20065;-69
2022/01/26 13:35:45;;;;;;;20.70;10.03;;;1.30;99.90;;;;;;5072159;28;20052;-69
2022/01/26 13:38:21;;;;;;;20.57;9.70;;;1.40;99.90;;;;;;5071954;28;20056;-69
2022/01/26 13:41:06;;;;;;;23.17;10.15;;;1.40;99.90;;;;;;5072088;28;20060;-70
2022/01/26 13:49:21;;;;;;;16.30;8.37;;;1.30;99.90;;;;;;5071879;28;20056;-69
2022/01/26 13:52:02;;;;;;;18.43;8.07;;;1.30;99.90;;;;;;5072071;28;20147;-69
2022/01/26 13:57:36;;;;;;;17.50;8.23;;;1.30;99.90;;;;;;5068791;28;20041;-69
2022/01/26 14:00:00;;;;;;;17.57;8.50;;;1.30;99.90;;;;;;5071569;28;20055;-69
2022/01/26 14:02:31;;;;;;;20.50;8.50;;;1.20;99.90;;;;;;5071825;28;20055;-69
2022/01/26 14:04:58;;;;;;;16.37;7.63;;;1.20;99.90;;;;;;5071309;28;20052;-69
2022/01/26 14:07:26;;;;;;;20.37;9.87;;;1.10;99.90;;;;;;5071711;28;20121;-69
2022/01/26 14:09:53;;;;;;;21.53;8.70;;;1.20;99.90;;;;;;5071645;28;20492;-69
2022/01/26 14:12:25;;;;;;;20.60;9.33;;;1.20;99.90;;;;;;5071413;28;20131;-69
2022/01/26 14:14:55;;;;;;;24.23;9.07;;;1.30;99.90;;;;;;5070739;28;20113;-69
2022/01/26 14:17:34;;;;;;;17.50;8.37;;;1.20;99.90;;;;;;5071460;28;20048;-69
2022/01/26 14:23:15;;;;;;;21.90;9.27;;;1.10;99.90;;;;;;5014051;28;20046;-70
2022/01/26 14:25:43;;;;;;;20.90;9.77;;;1.20;99.90;;;;;;5071020;28;20044;-69
2022/01/26 14:28:13;;;;;;;23.17;10.37;;;1.20;99.90;;;;;;5073187;28;20053;-71
2022/01/26 14:30:50;;;;;;;24.87;10.60;;;1.20;99.90;;;;;;5072281;28;20118;-71
2022/01/26 14:55:29;;;;;;;20.40;9.37;;;1.30;99.90;;;;;;5075900;28;20048;-71
2022/01/26 15:01:25;;;;;;;20.60;9.70;;;1.40;99.90;;;;;;5071265;28;20055;-71
2022/01/26 15:19:03;;;;;;;19.20;8.73;;;1.40;99.90;;;;;;5032005;28;20057;-71
2022/01/26 15:33:02;;;;;;;24.85;9.20;;;1.40;99.90;;;;;;5074461;28;20063;-71